Time;durP1;ratioP1;P1;durP2;ratioP2;P2;SDS_P1;SDS_P2;PMS_P1;PMS_P2;Temp;Humidity;BMP_temperature;BMP_pressure;BME280_temperature;BME280_humidity;BME280_pressure;Samples;Min_cycle;Max_cycle;Signal;HPM_P1;HPM_P2
2023/01/13 00:00:08;;;;;;;10.07;2.35;;;18.50;51.80;;;;;;5112952;28;20224;-71
2023/01/13 00:02:35;;;;;;;7.90;2.28;;;18.50;51.80;;;;;;5112079;28;20229;-71
2023/01/13 00:05:02;;;;;;;7.68;2.30;;;18.50;52.40;;;;;;5112507;28;20225;-71
2023/01/13 00:07:29;;;;;;;10.35;2.92;;;18.50;51.80;;;;;;5112588;28;20679;-71
2023/01/13 00:09:56;;;;;;;10.90;2.80;;;18.50;51.70;;;;;;5112572;28;20560;-71
2023/01/13 00:12:23;;;;;;;10.95;2.40;;;18.50;51.70;;;;;;5112213;28;20650;-71
2023/01/13 00:14:50;;;;;;;12.13;2.55;;;18.50;51.70;;;;;;5112211;28;20235;-71
2023/01/13 00:17:19;;;;;;;10.85;2.60;;;18.50;51.70;;;;;;5112494;28;20185;-71
2023/01/13 00:19:46;;;;;;;9.73;2.38;;;18.40;51.60;;;;;;5112382;28;20271;-70
2023/01/13 00:22:13;;;;;;;11.30;2.70;;;18.40;51.60;;;;;;5112331;28;20296;-71
2023/01/13 00:24:41;;;;;;;8.85;2.25;;;18.40;51.50;;;;;;5110785;28;20694;-71
2023/01/13 00:27:08;;;;;;;9.63;2.15;;;18.40;51.50;;;;;;5112015;28;20580;-71
2023/01/13 00:29:35;;;;;;;8.90;1.92;;;18.40;51.50;;;;;;5113387;28;20270;-71
2023/01/13 00:32:02;;;;;;;10.13;2.17;;;18.40;51.40;;;;;;5112200;28;20193;-71
2023/01/13 00:34:30;;;;;;;9.00;2.50;;;18.40;51.40;;;;;;5112913;28;20235;-71
2023/01/13 00:36:57;;;;;;;12.05;2.50;;;18.40;51.30;;;;;;5112188;28;20193;-71
2023/01/13 00:39:24;;;;;;;10.50;2.53;;;18.40;51.30;;;;;;5112016;28;20702;-71
2023/01/13 00:44:36;;;;;;;9.98;2.20;;;18.40;51.30;;;;;;5112107;28;20220;-71
2023/01/13 00:47:03;;;;;;;11.13;2.22;;;18.30;51.10;;;;;;5112521;28;20270;-71
2023/01/13 00:49:31;;;;;;;11.13;2.72;;;18.40;51.20;;;;;;5111986;28;20755;-71
2023/01/13 00:51:58;;;;;;;13.63;2.67;;;18.30;51.10;;;;;;5112342;28;20674;-71
2023/01/13 00:54:25;;;;;;;10.00;2.45;;;18.30;51.10;;;;;;5112038;28;20415;-71
2023/01/13 00:56:52;;;;;;;9.77;2.53;;;18.30;51.00;;;;;;5111857;28;20235;-71
2023/01/13 00:59:19;;;;;;;10.07;2.25;;;18.30;51.00;;;;;;5111849;28;20630;-71
2023/01/13 01:01:46;;;;;;;9.63;2.60;;;18.30;51.10;;;;;;5111788;28;20281;-71
2023/01/13 01:04:13;;;;;;;8.30;2.50;;;18.30;51.00;;;;;;5109588;28;20217;-71
2023/01/13 01:06:42;;;;;;;9.82;2.55;;;18.30;50.90;;;;;;5111823;28;20213;-71
2023/01/13 01:09:13;;;;;;;7.93;2.38;;;18.30;51.00;;;;;;5112177;28;20190;-71
2023/01/13 01:11:40;;;;;;;7.68;2.30;;;18.30;51.00;;;;;;5115684;28;20606;-70
2023/01/13 01:14:09;;;;;;;7.97;2.17;;;18.30;51.00;;;;;;5115779;28;20606;-70
2023/01/13 01:16:39;;;;;;;8.45;2.38;;;18.30;50.90;;;;;;5115260;28;20650;-71
2023/01/13 01:19:06;;;;;;;9.02;2.60;;;18.30;50.90;;;;;;5115458;28;20280;-71
2023/01/13 01:21:34;;;;;;;10.93;2.45;;;18.30;50.90;;;;;;5114389;28;20249;-70
2023/01/13 01:24:04;;;;;;;10.43;2.63;;;18.20;50.70;;;;;;5115235;28;20185;-71
2023/01/13 01:26:31;;;;;;;11.00;2.40;;;18.30;50.80;;;;;;5115024;28;20213;-71
2023/01/13 01:29:00;;;;;;;6.90;2.00;;;18.20;50.70;;;;;;5115117;28;20190;-71
2023/01/13 01:31:30;;;;;;;10.30;2.35;;;18.30;50.80;;;;;;5115473;28;20189;-71
2023/01/13 01:33:57;;;;;;;12.55;2.65;;;18.20;50.60;;;;;;5113667;28;20724;-71
2023/01/13 01:36:27;;;;;;;11.45;2.22;;;18.20;50.60;;;;;;5115300;28;20185;-71
2023/01/13 01:38:57;;;;;;;8.13;2.00;;;18.20;50.60;;;;;;5115363;28;20631;-70
2023/01/13 01:41:28;;;;;;;9.02;2.20;;;18.20;50.70;;;;;;5114769;28;20766;-71
2023/01/13 01:43:58;;;;;;;9.45;2.22;;;18.20;50.60;;;;;;5115062;28;20544;-71
2023/01/13 01:46:27;;;;;;;9.25;2.40;;;18.20;50.60;;;;;;5114984;28;20209;-71
2023/01/13 01:48:57;;;;;;;8.43;2.58;;;18.20;50.60;;;;;;5114502;28;20723;-70
2023/01/13 01:51:25;;;;;;;10.43;2.80;;;18.20;50.50;;;;;;5114560;28;20193;-71
2023/01/13 01:53:54;;;;;;;7.18;2.35;;;18.20;50.50;;;;;;5114538;28;20230;-70
2023/01/13 01:56:21;;;;;;;11.07;2.47;;;18.20;50.60;;;;;;5114438;28;20647;-71
2023/01/13 01:58:52;;;;;;;8.75;2.22;;;18.20;50.50;;;;;;5114153;28;20185;-71
2023/01/13 02:01:19;;;;;;;10.52;2.35;;;18.20;50.50;;;;;;5114414;28;20213;-71
2023/01/13 02:03:54;;;;;;;9.05;2.40;;;18.20;50.50;;;;;;5114746;28;20185;-71
2023/01/13 02:06:21;;;;;;;12.45;2.78;;;18.20;50.50;;;;;;5114594;27;20232;-71
2023/01/13 02:08:48;;;;;;;10.30;2.35;;;18.20;50.50;;;;;;5115120;28;20196;-71
2023/01/13 02:14:10;;;;;;;10.65;2.75;;;18.10;50.40;;;;;;5114136;28;20556;-71
2023/01/13 02:16:42;;;;;;;13.90;2.65;;;18.10;50.40;;;;;;5114052;28;20235;-71
2023/01/13 02:19:25;;;;;;;9.10;2.30;;;18.20;50.50;;;;;;5113994;28;20643;-71
2023/01/13 02:22:25;;;;;;;7.90;2.10;;;18.10;50.30;;;;;;5114318;28;20643;-71
2023/01/13 02:25:25;;;;;;;9.65;2.80;;;18.10;50.20;;;;;;5114272;28;20758;-71
2023/01/13 02:28:05;;;;;;;13.68;2.78;;;18.10;50.20;;;;;;5051104;28;20196;-71
2023/01/13 02:33:39;;;;;;;14.93;2.75;;;18.10;50.10;;;;;;5051030;28;20195;-71
2023/01/13 02:36:13;;;;;;;10.63;2.63;;;18.10;50.00;;;;;;5050860;28;20219;-71
2023/01/13 02:38:49;;;;;;;11.50;2.45;;;18.10;50.10;;;;;;5050631;28;20652;-71
2023/01/13 02:44:09;;;;;;;7.75;2.40;;;18.00;49.90;;;;;;5050869;28;20210;-71
2023/01/13 02:46:48;;;;;;;12.90;2.97;;;18.10;49.90;;;;;;5050582;28;20219;-69
2023/01/13 02:49:24;;;;;;;11.80;2.63;;;18.00;49.90;;;;;;5050597;28;20187;-69
2023/01/13 02:51:55;;;;;;;10.63;2.47;;;18.00;49.70;;;;;;5050681;28;20450;-69
2023/01/13 02:54:26;;;;;;;10.13;2.47;;;18.00;49.80;;;;;;5050487;28;20289;-69
2023/01/13 02:56:55;;;;;;;10.77;2.47;;;18.00;49.70;;;;;;5050288;28;20645;-69
2023/01/13 02:59:26;;;;;;;10.55;2.60;;;18.00;49.70;;;;;;5050335;28;20701;-69
2023/01/13 03:01:57;;;;;;;11.43;2.67;;;18.10;49.70;;;;;;5050172;28;20223;-69
2023/01/13 03:04:45;;;;;;;12.88;2.92;;;18.00;49.60;;;;;;5061814;28;20637;-69
2023/01/13 03:07:19;;;;;;;12.18;2.80;;;18.00;49.60;;;;;;5113150;28;20698;-70
2023/01/13 03:09:53;;;;;;;10.55;2.60;;;18.00;49.60;;;;;;5113078;28;20208;-71
2023/01/13 03:12:26;;;;;;;12.93;2.95;;;18.00;49.60;;;;;;5113080;28;20596;-71
2023/01/13 03:15:01;;;;;;;14.73;2.95;;;18.00;50.20;;;;;;5112820;28;20706;-71
2023/01/13 03:17:41;;;;;;;8.98;2.83;;;18.00;49.60;;;;;;5113308;28;20193;-71
2023/01/13 03:20:18;;;;;;;12.82;2.67;;;18.00;49.40;;;;;;5113094;28;20720;-71
2023/01/13 03:22:53;;;;;;;15.13;3.20;;;18.00;49.40;;;;;;5112741;28;20238;-71
2023/01/13 03:25:25;;;;;;;8.40;2.63;;;18.00;49.30;;;;;;5113376;28;20216;-71
2023/01/13 03:27:57;;;;;;;13.85;3.10;;;18.00;49.40;;;;;;5113023;28;20225;-71
2023/01/13 03:30:30;;;;;;;10.88;2.53;;;18.00;49.30;;;;;;5112914;28;20698;-71
2023/01/13 03:33:05;;;;;;;12.38;3.15;;;18.00;49.30;;;;;;5112428;28;20478;-69
2023/01/13 03:35:36;;;;;;;8.85;2.55;;;18.00;49.30;;;;;;5112830;28;20257;-69
2023/01/13 03:38:06;;;;;;;12.50;2.85;;;17.90;49.20;;;;;;5112932;28;20190;-69
2023/01/13 03:40:39;;;;;;;13.38;3.28;;;17.90;49.10;;;;;;5113083;28;20295;-68
2023/01/13 03:45:59;;;;;;;12.02;2.65;;;17.90;49.10;;;;;;5112771;28;20212;-71
2023/01/13 03:48:31;;;;;;;12.80;2.95;;;17.90;49.10;;;;;;5112494;28;20190;-71
2023/01/13 03:51:05;;;;;;;11.57;3.25;;;17.90;49.10;;;;;;5112733;28;20217;-71
2023/01/13 03:53:36;;;;;;;8.73;2.50;;;17.90;49.10;;;;;;5112670;28;20276;-71
2023/01/13 03:56:09;;;;;;;12.70;3.08;;;17.90;49.20;;;;;;5112831;28;20212;-71
2023/01/13 03:58:41;;;;;;;15.32;3.65;;;17.90;49.10;;;;;;5113143;28;20646;-71
2023/01/13 04:01:14;;;;;;;11.88;2.75;;;17.90;49.10;;;;;;5112670;28;20308;-69
2023/01/13 04:03:49;;;;;;;9.90;2.75;;;17.90;49.20;;;;;;5112359;28;20238;-71
2023/01/13 04:06:21;;;;;;;13.10;2.67;;;17.90;49.10;;;;;;5112392;28;20607;-71
2023/01/13 04:08:55;;;;;;;11.27;3.03;;;17.90;49.10;;;;;;5110790;28;20536;-71
2023/01/13 04:11:29;;;;;;;8.93;2.30;;;17.90;49.20;;;;;;5112441;28;20215;-71
2023/01/13 04:13:57;;;;;;;11.00;2.88;;;17.90;49.10;;;;;;5112554;28;20180;-70
2023/01/13 04:16:25;;;;;;;14.82;3.30;;;17.90;49.20;;;;;;5111316;28;20224;-70
2023/01/13 04:18:53;;;;;;;9.43;2.15;;;17.90;49.20;;;;;;5112161;28;20189;-71
2023/01/13 04:21:20;;;;;;;9.60;2.50;;;17.90;49.10;;;;;;5112774;28;20217;-71
2023/01/13 04:23:50;;;;;;;7.65;2.15;;;17.90;49.10;;;;;;5112475;28;20242;-71
2023/01/13 04:26:18;;;;;;;10.40;2.53;;;17.90;49.20;;;;;;5112077;28;20225;-71
2023/01/13 04:28:45;;;;;;;13.85;2.38;;;17.90;49.10;;;;;;5113156;28;20185;-71
2023/01/13 04:31:12;;;;;;;8.73;2.25;;;17.90;49.10;;;;;;5112633;28;20266;-70
2023/01/13 04:33:40;;;;;;;13.15;3.28;;;17.80;49.10;;;;;;5110804;28;20227;-71
2023/01/13 04:36:09;;;;;;;11.73;2.40;;;17.80;49.10;;;;;;5112309;28;20224;-71
2023/01/13 04:38:36;;;;;;;8.57;2.67;;;17.80;49.10;;;;;;5112128;28;20238;-71
2023/01/13 04:41:03;;;;;;;12.50;2.65;;;17.80;49.10;;;;;;5112286;28;20217;-71
2023/01/13 04:43:30;;;;;;;14.40;3.00;;;17.90;49.10;;;;;;5112067;28;20232;-71
2023/01/13 04:45:57;;;;;;;15.93;2.72;;;17.80;49.10;;;;;;5115651;28;20289;-71
2023/01/13 04:48:24;;;;;;;9.23;2.35;;;17.80;49.10;;;;;;5115793;28;20482;-71
2023/01/13 04:50:51;;;;;;;10.20;2.70;;;17.80;49.10;;;;;;5116089;28;20246;-71
2023/01/13 04:53:20;;;;;;;11.18;3.08;;;17.80;48.90;;;;;;5115862;28;20243;-71
2023/01/13 04:55:48;;;;;;;8.95;2.78;;;17.80;48.80;;;;;;5115707;28;20213;-69
2023/01/13 04:58:15;;;;;;;8.40;2.53;;;17.80;48.80;;;;;;5115886;28;20193;-69
2023/01/13 05:00:42;;;;;;;8.95;2.50;;;17.80;48.70;;;;;;5115656;28;20767;-69
2023/01/13 05:03:10;;;;;;;8.75;2.33;;;17.80;48.80;;;;;;5116201;28;20278;-69
2023/01/13 05:05:37;;;;;;;11.38;3.00;;;17.80;48.70;;;;;;5115586;28;20213;-69
2023/01/13 05:08:04;;;;;;;13.00;3.28;;;17.70;48.60;;;;;;5115451;28;20771;-69
2023/01/13 05:10:33;;;;;;;9.63;2.80;;;17.80;48.60;;;;;;5115551;28;20624;-69
2023/01/13 05:18:30;;;;;;;13.82;2.97;;;17.80;48.60;;;;;;5115627;28;20188;-68
2023/01/13 05:20:57;;;;;;;12.43;2.83;;;17.80;48.60;;;;;;5115438;28;20277;-68
2023/01/13 05:26:11;;;;;;;9.07;2.55;;;17.80;48.40;;;;;;5115232;28;20288;-69
2023/01/13 05:28:38;;;;;;;13.02;3.00;;;17.80;48.40;;;;;;5115284;28;20258;-69
2023/01/13 05:31:05;;;;;;;11.27;2.83;;;17.70;48.30;;;;;;5114994;28;20771;-69
2023/01/13 05:33:32;;;;;;;14.05;3.40;;;17.70;48.30;;;;;;5114318;28;20189;-68
2023/01/13 05:36:03;;;;;;;13.70;3.30;;;17.70;48.30;;;;;;5115413;28;20286;-69
2023/01/13 05:38:30;;;;;;;13.43;2.92;;;17.70;48.40;;;;;;5115228;28;20199;-69
2023/01/13 05:43:45;;;;;;;12.02;2.90;;;17.70;48.40;;;;;;5114860;28;20657;-69
2023/01/13 05:46:13;;;;;;;10.85;2.92;;;17.70;48.40;;;;;;5113663;28;20692;-69
2023/01/13 05:48:42;;;;;;;11.57;2.75;;;17.70;48.40;;;;;;5114941;28;20274;-69
2023/01/13 05:51:11;;;;;;;11.65;3.15;;;17.70;48.50;;;;;;5113443;28;20214;-69
2023/01/13 05:53:39;;;;;;;9.48;2.75;;;17.70;48.30;;;;;;5114866;28;20246;-69
2023/01/13 05:56:08;;;;;;;9.20;2.58;;;17.80;48.50;;;;;;5114511;28;20270;-69
2023/01/13 05:58:35;;;;;;;9.80;2.45;;;17.80;48.40;;;;;;5114773;28;20185;-69
2023/01/13 06:01:05;;;;;;;12.13;3.17;;;17.80;48.30;;;;;;5114411;28;20239;-69
2023/01/13 06:03:33;;;;;;;10.13;2.78;;;17.90;48.40;;;;;;5114353;28;20186;-69
2023/01/13 06:06:01;;;;;;;11.88;2.85;;;17.80;48.30;;;;;;5114515;28;20216;-69
2023/01/13 06:08:28;;;;;;;11.15;2.85;;;17.90;48.40;;;;;;5114604;28;20220;-69
2023/01/13 06:10:55;;;;;;;9.43;2.63;;;17.90;48.40;;;;;;5114157;28;20775;-69
2023/01/13 06:13:22;;;;;;;9.30;2.45;;;17.90;48.40;;;;;;5114678;28;20185;-69
2023/01/13 06:15:49;;;;;;;11.75;2.75;;;18.00;48.50;;;;;;5114398;28;20263;-68
2023/01/13 06:18:17;;;;;;;8.18;2.33;;;18.00;48.40;;;;;;5114499;28;20197;-71
2023/01/13 06:20:44;;;;;;;9.77;2.40;;;18.00;48.50;;;;;;5115399;28;20394;-71
2023/01/13 06:23:12;;;;;;;12.10;3.00;;;18.00;48.40;;;;;;5114412;28;20185;-71
2023/01/13 06:25:46;;;;;;;9.32;2.20;;;18.10;48.60;;;;;;5114012;28;20217;-71
2023/01/13 06:28:13;;;;;;;9.73;2.38;;;18.10;48.60;;;;;;5114243;28;20208;-71
2023/01/13 06:30:45;;;;;;;12.15;2.25;;;18.10;48.60;;;;;;5114299;28;20209;-71
2023/01/13 06:33:15;;;;;;;10.05;2.88;;;18.10;48.60;;;;;;5112726;28;20193;-70
2023/01/13 06:35:47;;;;;;;12.43;2.65;;;18.10;48.60;;;;;;5114159;27;20213;-71
2023/01/13 06:38:17;;;;;;;7.13;2.45;;;18.20;48.60;;;;;;5114096;28;20206;-71
2023/01/13 06:40:45;;;;;;;8.98;2.33;;;18.20;48.70;;;;;;5113468;28;20217;-71
2023/01/13 06:43:13;;;;;;;7.95;2.40;;;18.20;48.70;;;;;;5113966;28;20182;-70
2023/01/13 06:45:41;;;;;;;11.23;2.63;;;18.20;48.70;;;;;;5113716;28;20237;-71
2023/01/13 06:48:08;;;;;;;7.68;2.30;;;18.20;48.80;;;;;;5113665;28;20217;-71
2023/01/13 06:50:35;;;;;;;11.43;2.50;;;18.20;48.70;;;;;;5114375;28;20278;-71
2023/01/13 06:53:03;;;;;;;9.10;2.60;;;18.30;48.80;;;;;;5113388;28;20643;-70
2023/01/13 06:55:30;;;;;;;6.80;2.22;;;18.30;48.90;;;;;;5113634;28;20298;-71
2023/01/13 06:57:58;;;;;;;7.70;2.08;;;18.30;48.80;;;;;;5112534;28;20266;-71
2023/01/13 07:00:27;;;;;;;12.10;2.88;;;18.30;48.80;;;;;;5113538;28;20301;-71
2023/01/13 07:02:54;;;;;;;8.48;2.55;;;18.30;48.80;;;;;;5113107;28;20228;-71
2023/01/13 07:05:22;;;;;;;7.78;2.45;;;18.30;48.70;;;;;;5113584;28;20209;-71
2023/01/13 07:07:49;;;;;;;11.35;2.70;;;18.40;48.90;;;;;;5112478;28;20209;-71
2023/01/13 07:10:22;;;;;;;7.88;2.38;;;18.40;48.80;;;;;;5113258;28;20209;-71
2023/01/13 07:15:34;;;;;;;10.00;2.47;;;18.40;48.80;;;;;;5113410;28;20753;-71
2023/01/13 07:18:02;;;;;;;9.05;2.63;;;18.40;48.80;;;;;;5112945;28;20185;-71
2023/01/13 07:20:30;;;;;;;9.07;2.20;;;18.40;48.70;;;;;;5113230;28;20694;-71
2023/01/13 07:22:57;;;;;;;9.30;2.80;;;18.40;48.70;;;;;;5112900;28;20716;-71
2023/01/13 07:25:26;;;;;;;10.90;2.65;;;18.40;48.70;;;;;;5113232;28;20217;-70
2023/01/13 07:27:53;;;;;;;8.48;2.20;;;18.40;48.70;;;;;;5112838;28;20209;-71
2023/01/13 07:30:20;;;;;;;10.38;2.35;;;18.40;48.70;;;;;;5112863;28;20217;-71
2023/01/13 07:32:47;;;;;;;10.50;2.53;;;18.50;48.70;;;;;;5112917;28;20600;-71
2023/01/13 07:35:16;;;;;;;11.85;2.50;;;18.50;48.60;;;;;;5113017;28;20266;-71
2023/01/13 07:37:43;;;;;;;10.38;2.30;;;18.50;48.70;;;;;;5112765;28;20191;-71
2023/01/13 07:40:11;;;;;;;9.77;2.30;;;18.50;48.70;;;;;;5113000;28;20209;-71
2023/01/13 07:45:26;;;;;;;9.35;2.63;;;18.50;48.60;;;;;;5095668;28;20321;-71
2023/01/13 07:47:53;;;;;;;9.98;2.70;;;18.50;48.50;;;;;;5091649;28;20249;-71
2023/01/13 07:50:22;;;;;;;12.00;3.22;;;18.50;48.50;;;;;;5102766;28;20641;-72
2023/01/13 07:52:52;;;;;;;10.10;2.40;;;18.50;48.50;;;;;;5103752;28;20204;-72
2023/01/13 07:55:19;;;;;;;10.90;2.83;;;18.50;48.10;;;;;;5057364;28;20222;-72
2023/01/13 07:57:48;;;;;;;10.82;2.78;;;18.60;48.10;;;;;;5091392;28;20697;-72
2023/01/13 08:00:16;;;;;;;11.32;3.08;;;18.50;47.70;;;;;;5090272;28;20220;-71
2023/01/13 08:02:43;;;;;;;9.70;2.42;;;18.50;47.70;;;;;;5095190;28;20230;-71
2023/01/13 08:05:10;;;;;;;10.57;2.70;;;18.50;47.70;;;;;;5097221;28;20262;-72
2023/01/13 08:07:39;;;;;;;11.55;2.25;;;18.50;47.70;;;;;;5100953;28;20695;-72
2023/01/13 08:10:07;;;;;;;12.73;3.15;;;18.50;47.70;;;;;;5061896;28;20684;-73
2023/01/13 08:15:20;;;;;;;13.93;3.10;;;18.60;47.80;;;;;;5097012;27;20217;-73
2023/01/13 08:17:47;;;;;;;10.07;2.80;;;18.60;47.80;;;;;;5103346;28;20262;-72
2023/01/13 08:20:14;;;;;;;12.45;3.13;;;18.60;47.70;;;;;;5115199;28;20269;-73
2023/01/13 08:22:41;;;;;;;13.68;3.05;;;18.60;47.70;;;;;;5116425;28;20181;-73
2023/01/13 08:25:09;;;;;;;14.40;2.80;;;18.60;47.50;;;;;;5115463;28;20221;-73
2023/01/13 08:27:36;;;;;;;11.70;2.58;;;18.60;47.50;;;;;;5115153;28;20618;-74
2023/01/13 08:30:04;;;;;;;10.82;3.22;;;18.70;47.70;;;;;;5114162;28;20221;-72
2023/01/13 08:32:32;;;;;;;13.65;3.03;;;18.80;47.70;;;;;;5110886;28;20228;-73
2023/01/13 08:34:59;;;;;;;11.52;2.63;;;18.80;47.70;;;;;;5094954;28;20229;-73
2023/01/13 08:37:26;;;;;;;10.57;2.88;;;18.80;47.70;;;;;;5094986;28;20243;-72
2023/01/13 08:39:53;;;;;;;10.25;2.70;;;18.80;47.70;;;;;;5094716;28;20186;-73
2023/01/13 08:42:21;;;;;;;12.15;2.92;;;18.80;47.70;;;;;;5108201;28;20185;-73
2023/01/13 08:44:48;;;;;;;11.18;2.75;;;18.80;47.60;;;;;;5115841;27;20712;-73
2023/01/13 08:47:15;;;;;;;7.60;2.88;;;18.90;47.60;;;;;;5115222;28;20196;-73
2023/01/13 08:49:43;;;;;;;11.88;3.15;;;18.90;47.50;;;;;;5114415;28;20197;-74
2023/01/13 08:52:11;;;;;;;11.45;2.60;;;18.90;47.70;;;;;;5114791;28;20194;-75
2023/01/13 08:54:38;;;;;;;8.77;2.55;;;18.90;47.50;;;;;;5113803;28;20277;-74
2023/01/13 08:57:06;;;;;;;9.23;2.53;;;18.90;47.60;;;;;;5114106;28;20195;-74
2023/01/13 08:59:33;;;;;;;11.98;2.83;;;18.90;47.50;;;;;;5108135;27;20683;-73
2023/01/13 09:02:02;;;;;;;10.27;3.10;;;19.00;47.60;;;;;;5097344;28;20600;-71
2023/01/13 09:04:30;;;;;;;12.57;3.28;;;19.00;47.50;;;;;;5096452;27;20190;-76
2023/01/13 09:07:01;;;;;;;9.75;2.78;;;19.00;47.40;;;;;;5095373;28;20672;-73
2023/01/13 09:09:30;;;;;;;12.55;2.95;;;19.00;47.40;;;;;;5093592;28;20693;-74
2023/01/13 09:14:46;;;;;;;13.93;2.80;;;19.10;47.30;;;;;;5119958;28;20180;-74
2023/01/13 09:17:13;;;;;;;10.35;2.67;;;19.10;47.50;;;;;;5117401;28;20553;-71
2023/01/13 09:19:41;;;;;;;10.80;3.00;;;19.10;47.40;;;;;;5115303;28;20189;-72
2023/01/13 09:22:16;;;;;;;11.15;3.13;;;19.10;47.40;;;;;;5118115;28;20278;-73
2023/01/13 09:24:43;;;;;;;9.50;2.53;;;19.10;47.30;;;;;;5117748;28;20184;-73
2023/01/13 09:27:13;;;;;;;15.10;2.90;;;19.10;47.40;;;;;;5115117;28;20262;-73
2023/01/13 09:29:42;;;;;;;13.15;3.38;;;19.20;47.30;;;;;;5117026;28;20209;-72
2023/01/13 09:32:12;;;;;;;14.80;3.35;;;19.20;48.00;;;;;;5117496;28;20213;-74
2023/01/13 09:37:28;;;;;;;12.00;2.90;;;19.20;47.30;;;;;;5120464;28;20207;-74
2023/01/13 09:39:55;;;;;;;16.15;3.15;;;19.20;47.30;;;;;;5117527;28;20186;-75
2023/01/13 09:45:20;;;;;;;12.85;2.83;;;19.30;47.40;;;;;;5116133;28;20643;-73
2023/01/13 09:47:54;;;;;;;17.33;3.60;;;19.30;47.20;;;;;;5114320;27;20192;-74
2023/01/13 09:50:41;;;;;;;12.07;2.85;;;19.40;47.30;;;;;;5114471;28;20217;-72
2023/01/13 09:53:22;;;;;;;13.77;3.05;;;19.40;47.10;;;;;;5114446;28;20200;-74
2023/01/13 09:55:50;;;;;;;11.32;2.70;;;19.40;47.10;;;;;;5115914;28;20702;-73
2023/01/13 09:58:18;;;;;;;12.52;2.88;;;19.40;47.20;;;;;;5113682;28;20224;-74
2023/01/13 10:00:53;;;;;;;13.60;3.47;;;19.50;47.30;;;;;;5113506;28;20215;-73
2023/01/13 10:03:26;;;;;;;13.18;3.10;;;19.40;47.20;;;;;;5113888;28;20228;-73
2023/01/13 10:06:03;;;;;;;15.40;3.03;;;19.50;47.30;;;;;;5112582;28;20259;-72
2023/01/13 10:08:34;;;;;;;11.57;2.60;;;19.50;47.30;;;;;;5113236;28;20268;-75
2023/01/13 10:13:12;;;;;;;11.55;2.83;;;19.50;47.30;;;;;;5113598;28;20725;-75
2023/01/13 10:13:57;;;;;;;9.70;2.42;;;19.50;47.20;;;;;;5113299;28;20197;-75
2023/01/13 10:16:33;;;;;;;11.00;2.97;;;19.60;47.40;;;;;;5113726;28;20248;-75
2023/01/13 10:19:05;;;;;;;10.07;2.75;;;19.60;47.20;;;;;;5106202;28;20193;-75
2023/01/13 10:21:56;;;;;;;9.10;2.40;;;19.60;47.10;;;;;;5096638;28;20226;-72
2023/01/13 10:24:40;;;;;;;8.52;2.42;;;19.60;47.10;;;;;;5094855;28;20251;-71
2023/01/13 10:27:15;;;;;;;11.48;3.10;;;19.60;47.10;;;;;;5112717;28;20270;-74
2023/01/13 10:29:42;;;;;;;13.43;3.15;;;19.60;47.10;;;;;;5112961;28;20265;-72
2023/01/13 10:32:09;;;;;;;13.10;2.95;;;19.60;47.00;;;;;;5112769;28;20293;-71
2023/01/13 10:34:46;;;;;;;9.55;2.65;;;19.70;47.00;;;;;;5111857;28;20209;-73
2023/01/13 10:37:21;;;;;;;14.43;2.97;;;19.70;46.80;;;;;;5113206;28;20215;-73
2023/01/13 10:39:49;;;;;;;14.63;3.50;;;19.70;46.80;;;;;;5113391;28;20189;-73
2023/01/13 10:42:20;;;;;;;15.63;2.50;;;19.70;46.70;;;;;;5103425;28;20194;-71
2023/01/13 10:44:49;;;;;;;16.85;3.25;;;19.70;46.70;;;;;;5092051;28;20202;-72
2023/01/13 10:47:22;;;;;;;16.58;2.70;;;19.70;46.20;;;;;;5095248;28;20217;-73
2023/01/13 10:50:19;;;;;;;11.38;2.50;;;19.70;46.10;;;;;;5112785;28;20213;-73
2023/01/13 10:52:59;;;;;;;11.10;2.70;;;19.70;45.90;;;;;;5112004;28;20308;-73
2023/01/13 10:55:31;;;;;;;12.43;2.90;;;19.70;45.90;;;;;;5092491;28;20189;-72
2023/01/13 10:58:12;;;;;;;10.93;2.78;;;19.70;46.00;;;;;;5108420;28;20221;-72
2023/01/13 11:00:40;;;;;;;11.07;3.40;;;19.70;45.90;;;;;;5112468;28;20625;-71
2023/01/13 11:03:16;;;;;;;10.13;2.97;;;19.70;45.90;;;;;;5112189;28;20237;-71
2023/01/13 11:05:52;;;;;;;12.65;2.63;;;19.70;45.90;;;;;;5098348;28;20193;-72
2023/01/13 11:08:22;;;;;;;9.30;2.38;;;19.70;45.90;;;;;;5109398;28;20299;-72
2023/01/13 11:10:54;;;;;;;13.10;2.85;;;19.70;45.90;;;;;;5111889;28;20205;-72
2023/01/13 11:13:30;;;;;;;15.38;2.95;;;19.70;46.00;;;;;;5109905;28;20229;-71
2023/01/13 11:16:01;;;;;;;24.90;3.47;;;19.70;45.90;;;;;;5112589;28;20316;-74
2023/01/13 11:18:39;;;;;;;22.45;3.35;;;19.70;46.00;;;;;;5112668;28;20194;-74
2023/01/13 11:21:14;;;;;;;18.50;2.83;;;19.80;46.00;;;;;;5106630;28;20193;-74
2023/01/13 11:23:47;;;;;;;17.75;2.72;;;19.70;45.90;;;;;;5095942;28;20238;-71
2023/01/13 11:26:21;;;;;;;20.20;3.13;;;19.80;46.00;;;;;;5105090;28;20242;-71
2023/01/13 11:28:56;;;;;;;10.38;2.83;;;19.80;46.00;;;;;;5112232;28;20212;-72
2023/01/13 11:31:27;;;;;;;12.30;3.10;;;19.80;46.00;;;;;;5112116;28;20265;-71
2023/01/13 11:34:00;;;;;;;10.65;2.40;;;19.80;46.00;;;;;;5108922;27;20608;-72
2023/01/13 11:36:34;;;;;;;8.73;2.47;;;19.80;46.00;;;;;;5089924;28;20235;-72
2023/01/13 11:39:10;;;;;;;10.85;2.55;;;19.80;45.90;;;;;;5098760;28;20194;-72
2023/01/13 11:41:44;;;;;;;11.45;2.60;;;19.80;45.90;;;;;;5110350;28;20266;-74
2023/01/13 11:44:20;;;;;;;14.00;2.55;;;19.90;45.90;;;;;;5111886;28;20190;-72
2023/01/13 11:46:49;;;;;;;9.85;2.80;;;19.80;45.90;;;;;;5111183;28;20220;-72
2023/01/13 11:49:23;;;;;;;12.43;3.05;;;19.90;45.90;;;;;;5109928;28;20227;-72
2023/01/13 11:51:57;;;;;;;9.73;2.28;;;19.90;45.70;;;;;;5112135;28;20217;-72
2023/01/13 11:54:44;;;;;;;12.73;2.97;;;19.90;45.60;;;;;;5111768;28;20242;-72
2023/01/13 11:57:51;;;;;;;9.68;2.75;;;19.90;45.50;;;;;;5111947;28;20304;-70
2023/01/13 12:00:32;;;;;;;10.55;2.40;;;19.90;45.40;;;;;;5088697;28;20655;-71
2023/01/13 12:03:20;;;;;;;11.23;2.88;;;19.90;45.40;;;;;;5109348;28;20237;-71
2023/01/13 12:06:02;;;;;;;10.63;2.67;;;19.80;45.30;;;;;;5112090;28;20181;-70
2023/01/13 12:08:52;;;;;;;16.10;3.13;;;19.90;45.40;;;;;;5111428;28;20705;-71
2023/01/13 12:11:26;;;;;;;11.65;2.50;;;19.90;45.20;;;;;;5112116;28;20186;-71
2023/01/13 12:14:13;;;;;;;11.98;2.58;;;19.80;45.20;;;;;;5112194;28;20201;-70
2023/01/13 12:16:47;;;;;;;13.68;2.92;;;19.80;45.20;;;;;;5112080;28;20269;-71
2023/01/13 12:19:26;;;;;;;11.68;2.92;;;19.80;45.20;;;;;;5111827;28;20216;-71
2023/01/13 12:22:03;;;;;;;11.95;2.60;;;19.80;45.30;;;;;;5111997;28;20603;-71
2023/01/13 12:24:34;;;;;;;11.43;3.60;;;19.70;45.30;;;;;;5111941;28;20287;-71
2023/01/13 12:27:05;;;;;;;9.27;2.53;;;19.70;45.30;;;;;;5111707;28;20217;-71
2023/01/13 12:29:35;;;;;;;9.63;2.72;;;19.70;45.30;;;;;;5111978;28;20213;-71
2023/01/13 12:32:05;;;;;;;9.63;2.75;;;19.70;45.50;;;;;;5111641;28;20636;-72
2023/01/13 12:34:43;;;;;;;8.70;2.50;;;19.70;45.60;;;;;;5111881;28;20185;-71
2023/01/13 12:37:16;;;;;;;10.35;2.90;;;19.70;45.60;;;;;;5111655;28;20213;-72
2023/01/13 12:39:55;;;;;;;9.13;2.67;;;19.70;45.50;;;;;;5111468;28;20646;-71
2023/01/13 12:45:31;;;;;;;8.98;2.38;;;19.70;45.50;;;;;;5048717;28;20203;-72
2023/01/13 12:47:59;;;;;;;13.75;2.72;;;19.70;45.40;;;;;;5048337;28;20277;-72
2023/01/13 12:50:59;;;;;;;9.48;2.50;;;19.80;45.40;;;;;;5077340;28;20273;-72
2023/01/13 12:53:35;;;;;;;12.38;2.45;;;19.80;45.20;;;;;;5111864;28;20244;-72
2023/01/13 12:56:28;;;;;;;10.32;2.15;;;19.80;45.40;;;;;;5111811;28;20238;-72
2023/01/13 12:59:47;;;;;;;11.30;2.80;;;19.80;45.30;;;;;;5111220;28;20237;-74
2023/01/13 13:02:43;;;;;;;10.45;2.65;;;19.80;45.90;;;;;;5111053;28;20781;-71
2023/01/13 13:05:38;;;;;;;11.00;2.85;;;19.80;45.10;;;;;;5101136;27;20193;-72
2023/01/13 13:08:16;;;;;;;17.90;3.33;;;19.70;45.20;;;;;;5109761;27;20213;-72
2023/01/13 13:10:58;;;;;;;10.13;2.47;;;19.80;45.20;;;;;;5106349;28;20586;-72
2023/01/13 13:13:42;;;;;;;13.57;2.75;;;19.70;45.20;;;;;;5105827;28;20705;-71
2023/01/13 13:16:59;;;;;;;15.05;2.63;;;19.70;45.20;;;;;;5110688;28;20197;-71
2023/01/13 13:19:44;;;;;;;14.95;2.65;;;19.70;45.50;;;;;;5089685;28;20235;-70
2023/01/13 13:22:50;;;;;;;8.02;2.33;;;19.80;45.30;;;;;;5089363;28;20240;-72
2023/01/13 13:25:23;;;;;;;9.57;2.55;;;19.80;45.30;;;;;;5086265;28;20197;-71
2023/01/13 13:28:09;;;;;;;11.38;2.78;;;19.80;45.40;;;;;;5091033;28;20210;-72
2023/01/13 13:30:39;;;;;;;11.15;2.80;;;19.80;45.30;;;;;;5081188;28;20217;-71
2023/01/13 13:33:20;;;;;;;13.20;2.67;;;19.80;45.50;;;;;;5089997;28;20230;-71
2023/01/13 13:36:01;;;;;;;10.73;2.78;;;19.80;45.50;;;;;;5074970;28;20199;-73
2023/01/13 13:47:10;;;;;;;9.02;2.17;;;19.80;45.30;;;;;;5090336;28;20613;-72
2023/01/13 13:49:40;;;;;;;9.00;2.50;;;19.90;45.40;;;;;;5090151;28;20282;-71
2023/01/13 13:52:17;;;;;;;10.05;2.55;;;19.80;45.30;;;;;;5086088;28;20221;-71
2023/01/13 13:54:48;;;;;;;6.78;2.10;;;19.90;45.40;;;;;;5089487;28;20194;-72
2023/01/13 13:57:21;;;;;;;10.60;2.60;;;19.90;45.50;;;;;;5107058;28;20217;-73